createdAt,value
2018-10-07T00:01:52.522Z,6.77
2018-10-07T00:04:21.769Z,7.27
2018-10-07T00:06:51.062Z,10.90
2018-10-07T00:09:20.281Z,7.83
2018-10-07T00:11:49.517Z,8.70
2018-10-07T00:14:18.833Z,5.43
2018-10-07T00:16:48.101Z,8.33
2018-10-07T00:19:19.144Z,6.40
2018-10-07T00:21:48.413Z,8.03
2018-10-07T00:24:17.495Z,6.00
2018-10-07T00:26:47.120Z,7.43
2018-10-07T00:29:16.293Z,8.50
2018-10-07T00:31:50.573Z,8.50
2018-10-07T00:34:20.118Z,7.43
2018-10-07T00:36:49.316Z,12.83
2018-10-07T00:39:18.842Z,8.47
2018-10-07T00:41:47.935Z,13.87
2018-10-07T00:44:17.466Z,12.70
2018-10-07T00:46:47.053Z,11.50
2018-10-07T00:49:16.329Z,9.63
2018-10-07T00:51:45.561Z,10.90
2018-10-07T00:54:14.709Z,8.80
2018-10-07T00:56:43.933Z,7.43
2018-10-07T00:59:12.939Z,6.00
2018-10-07T01:01:42.175Z,7.83
2018-10-07T01:04:11.406Z,5.73
2018-10-07T01:06:40.613Z,5.37
2018-10-07T01:09:11.509Z,9.07
2018-10-07T01:11:41.418Z,9.03
2018-10-07T01:14:11.192Z,6.50
2018-10-07T01:16:40.422Z,7.77
2018-10-07T01:19:09.497Z,9.33
2018-10-07T01:21:38.790Z,16.70
2018-10-07T01:24:08.125Z,12.60
2018-10-07T01:26:37.496Z,12.20
2018-10-07T01:29:07.226Z,8.80
2018-10-07T01:31:37.529Z,9.03
2018-10-07T01:34:06.754Z,10.53
2018-10-07T01:36:36.525Z,7.93
2018-10-07T01:39:08.769Z,9.33
2018-10-07T01:41:38.081Z,24.23
2018-10-07T01:44:07.315Z,19.50
2018-10-07T01:46:36.726Z,22.73
2018-10-07T01:49:05.825Z,22.00
2018-10-07T01:51:34.889Z,14.57
2018-10-07T01:54:04.076Z,9.40
2018-10-07T01:56:33.382Z,10.03
2018-10-07T01:59:02.469Z,14.43
2018-10-07T02:01:31.882Z,13.20
2018-10-07T02:04:01.064Z,10.00
2018-10-07T02:06:30.281Z,5.83
2018-10-07T02:08:59.881Z,9.20
2018-10-07T02:11:29.086Z,7.70
2018-10-07T02:13:58.228Z,11.00
2018-10-07T02:16:27.601Z,7.20
2018-10-07T02:18:56.776Z,8.70
2018-10-07T02:21:25.869Z,11.23
2018-10-07T02:23:55.349Z,8.13
2018-10-07T02:26:24.577Z,8.43
2018-10-07T02:28:53.666Z,6.87
2018-10-07T02:31:23.042Z,5.87
2018-10-07T02:33:52.185Z,7.73
2018-10-07T02:36:21.262Z,6.27
2018-10-07T02:38:50.841Z,12.37
2018-10-07T02:41:20.169Z,9.70
2018-10-07T02:43:49.374Z,6.07
2018-10-07T02:46:18.590Z,8.17
2018-10-07T02:48:47.758Z,8.57
2018-10-07T02:51:16.965Z,9.07
2018-10-07T02:53:48.002Z,7.27
2018-10-07T02:56:17.121Z,8.90
2018-10-07T02:58:46.614Z,15.20
2018-10-07T03:01:15.889Z,18.80
2018-10-07T03:03:45.093Z,16.27
2018-10-07T03:06:14.413Z,16.47
2018-10-07T03:08:43.601Z,11.40
2018-10-07T03:11:12.700Z,15.67
2018-10-07T03:13:42.144Z,13.87
2018-10-07T03:16:11.404Z,10.10
2018-10-07T03:18:40.597Z,10.13
2018-10-07T03:21:10.128Z,11.57
2018-10-07T03:23:39.305Z,9.43
2018-10-07T03:26:08.421Z,13.17
2018-10-07T03:28:37.805Z,10.70
2018-10-07T03:31:07.424Z,10.20
2018-10-07T03:33:36.721Z,12.00
2018-10-07T03:36:06.205Z,9.00
2018-10-07T03:38:35.305Z,10.03
2018-10-07T03:41:04.542Z,9.97
2018-10-07T03:43:33.965Z,9.27
2018-10-07T03:46:03.226Z,14.63
2018-10-07T03:48:32.506Z,7.27
2018-10-07T03:51:01.778Z,7.10
2018-10-07T03:53:31.103Z,12.37
2018-10-07T03:56:00.709Z,9.77
2018-10-07T03:58:29.982Z,10.80
2018-10-07T04:00:59.213Z,10.77
2018-10-07T04:03:28.402Z,10.47
2018-10-07T04:05:57.925Z,10.30
2018-10-07T04:08:27.210Z,9.40
2018-10-07T04:10:56.517Z,12.87
2018-10-07T04:13:26.020Z,8.77
2018-10-07T04:15:55.120Z,8.43
2018-10-07T04:18:24.214Z,10.73
2018-10-07T04:20:53.524Z,8.63
2018-10-07T04:23:22.797Z,8.43
2018-10-07T04:25:52.290Z,7.07
2018-10-07T04:28:21.773Z,9.80
2018-10-07T04:30:50.925Z,12.47
2018-10-07T04:33:20.113Z,13.57
2018-10-07T04:35:49.516Z,15.90
2018-10-07T04:38:18.805Z,20.00
2018-10-07T04:40:48.011Z,11.23
2018-10-07T04:43:17.481Z,14.70
2018-10-07T04:45:46.709Z,12.63
2018-10-07T04:48:15.917Z,11.33
2018-10-07T04:50:45.308Z,8.30
2018-10-07T04:53:14.415Z,9.10
2018-10-07T04:55:43.589Z,9.70
2018-10-07T04:58:12.857Z,9.43
2018-10-07T05:00:41.914Z,8.27
2018-10-07T05:03:11.125Z,11.33
2018-10-07T05:05:40.435Z,11.90
2018-10-07T05:08:09.907Z,15.00
2018-10-07T05:10:51.431Z,8.10
2018-10-07T05:13:26.853Z,9.73
2018-10-07T05:16:04.481Z,9.30
2018-10-07T05:18:33.536Z,13.90
2018-10-07T05:21:02.800Z,12.00
2018-10-07T05:23:32.351Z,14.37
2018-10-07T05:26:01.554Z,20.50
2018-10-07T05:28:30.839Z,12.80
2018-10-07T05:31:00.424Z,10.40
2018-10-07T05:33:29.698Z,10.33
2018-10-07T05:35:59.144Z,9.53
2018-10-07T05:38:28.536Z,11.03
2018-10-07T05:41:00.423Z,7.07
2018-10-07T05:43:29.893Z,8.63
2018-10-07T05:45:59.227Z,8.00
2018-10-07T05:48:28.722Z,13.80
2018-10-07T05:50:58.174Z,7.80
2018-10-07T05:53:27.374Z,9.90
2018-10-07T05:55:56.509Z,10.63
2018-10-07T05:58:25.857Z,10.00
2018-10-07T06:00:58.024Z,9.37
2018-10-07T06:03:35.261Z,8.43
2018-10-07T06:06:04.557Z,13.33
2018-10-07T06:08:33.863Z,8.50
2018-10-07T06:11:03.120Z,15.70
2018-10-07T06:13:32.378Z,5.83
2018-10-07T06:16:01.463Z,19.83
2018-10-07T06:18:30.756Z,9.17
2018-10-07T06:21:00.047Z,7.77
2018-10-07T06:23:29.357Z,6.00
2018-10-07T06:25:59.997Z,6.77
2018-10-07T06:28:29.207Z,5.33
2018-10-07T06:30:58.385Z,4.90
2018-10-07T06:33:27.698Z,10.20
2018-10-07T06:35:56.788Z,7.40
2018-10-07T06:38:26.044Z,14.23
2018-10-07T06:40:55.545Z,6.13
2018-10-07T06:43:24.870Z,8.63
2018-10-07T06:45:54.253Z,6.93
2018-10-07T06:48:23.749Z,7.43
2018-10-07T06:50:53.012Z,6.67
2018-10-07T06:53:22.199Z,9.20
2018-10-07T06:55:51.593Z,6.43
2018-10-07T06:58:20.801Z,5.67
2018-10-07T07:00:50.081Z,4.73
2018-10-07T07:03:19.653Z,5.73
2018-10-07T07:05:48.929Z,9.27
2018-10-07T07:08:18.099Z,8.07
2018-10-07T07:10:47.477Z,5.70
2018-10-07T07:13:16.801Z,6.17
2018-10-07T07:15:45.985Z,7.63
2018-10-07T07:18:15.139Z,3.20
2018-10-07T07:20:44.505Z,6.80
2018-10-07T07:23:13.785Z,5.97
2018-10-07T07:25:43.059Z,16.20
2018-10-07T07:28:12.340Z,6.83
2018-10-07T07:30:41.598Z,8.83
2018-10-07T07:33:10.742Z,4.80
2018-10-07T07:35:39.982Z,7.93
2018-10-07T07:38:09.279Z,6.27
2018-10-07T07:40:38.993Z,7.50
2018-10-07T07:43:08.245Z,6.27
2018-10-07T07:45:37.503Z,5.40
2018-10-07T07:48:06.953Z,8.73
2018-10-07T07:50:36.188Z,9.50
2018-10-07T07:53:05.487Z,4.47
2018-10-07T07:55:34.847Z,6.97
2018-10-07T07:58:04.003Z,4.83
2018-10-07T08:00:33.203Z,5.77
2018-10-07T08:03:02.344Z,4.63
2018-10-07T08:05:31.489Z,9.70
2018-10-07T08:08:00.605Z,8.00
2018-10-07T08:10:29.788Z,5.70
2018-10-07T08:12:58.962Z,8.80
2018-10-07T08:15:28.170Z,35.73
2018-10-07T08:17:57.967Z,7.33
2018-10-07T08:20:27.294Z,7.27
2018-10-07T08:22:56.398Z,5.67
2018-10-07T08:25:25.869Z,7.27
2018-10-07T08:27:55.084Z,7.90
2018-10-07T08:30:24.301Z,4.33
2018-10-07T08:32:53.813Z,9.17
2018-10-07T08:35:23.078Z,5.73
2018-10-07T08:37:52.395Z,8.67
2018-10-07T08:40:21.553Z,4.47
2018-10-07T08:42:50.782Z,7.03
2018-10-07T08:45:19.871Z,4.90
2018-10-07T08:47:49.306Z,2.43
2018-10-07T08:50:18.385Z,2.87
2018-10-07T08:52:47.494Z,7.07
2018-10-07T08:55:16.713Z,2.80
2018-10-07T08:57:45.956Z,3.17
2018-10-07T09:00:15.266Z,4.23
2018-10-07T09:02:46.315Z,3.77
2018-10-07T09:05:15.539Z,7.17
2018-10-07T09:07:44.721Z,3.20
2018-10-07T09:10:14.250Z,2.63
2018-10-07T09:12:43.398Z,2.20
2018-10-07T09:15:12.604Z,3.97
2018-10-07T09:17:42.136Z,7.37
2018-10-07T09:20:11.424Z,2.17
2018-10-07T09:22:40.510Z,2.07
2018-10-07T09:25:09.893Z,6.97
2018-10-07T09:27:39.156Z,6.57
2018-10-07T09:30:08.710Z,4.40
2018-10-07T09:32:38.754Z,9.33
2018-10-07T09:35:08.244Z,6.43
2018-10-07T09:37:37.558Z,4.73
2018-10-07T09:40:07.090Z,1.70
2018-10-07T09:42:36.365Z,5.30
2018-10-07T09:45:08.555Z,4.20
2018-10-07T09:47:38.158Z,24.77
2018-10-07T09:50:07.480Z,2.67
2018-10-07T09:52:36.429Z,2.53
2018-10-07T09:55:06.705Z,5.50
2018-10-07T09:57:35.900Z,2.97
2018-10-07T10:00:05.082Z,3.37
2018-10-07T10:02:34.305Z,2.90
2018-10-07T10:05:03.372Z,11.03
2018-10-07T10:07:32.488Z,4.60
2018-10-07T10:10:01.937Z,169.33
2018-10-07T10:12:31.170Z,5.57
2018-10-07T10:15:00.251Z,11.33
2018-10-07T10:17:31.252Z,3.37
2018-10-07T10:20:05.040Z,5.00
2018-10-07T10:22:59.384Z,5.83
2018-10-07T10:25:39.299Z,10.43
2018-10-07T10:28:24.206Z,6.60
2018-10-07T10:31:16.649Z,3.37
2018-10-07T10:34:14.523Z,3.43
2018-10-07T10:37:04.357Z,1.13
2018-10-07T10:39:52.888Z,2.87
2018-10-07T10:43:38.967Z,3.70
2018-10-07T10:47:16.679Z,2.43
2018-10-07T10:49:52.673Z,2.30
2018-10-07T11:04:41.785Z,4.27
2018-10-07T11:07:14.862Z,3.90
2018-10-07T11:11:54.025Z,3.13
2018-10-07T11:15:32.446Z,3.10
2018-10-07T11:19:16.539Z,4.27
2018-10-07T11:22:18.773Z,3.20
2018-10-07T11:26:58.932Z,3.60
2018-10-07T11:29:38.945Z,8.57
2018-10-07T11:35:32.465Z,2.83
2018-10-07T11:38:06.617Z,2.33
2018-10-07T11:40:47.003Z,2.87
2018-10-07T11:44:26.784Z,3.80
2018-10-07T11:47:10.649Z,3.97
2018-10-07T11:50:06.549Z,3.43
2018-10-07T11:52:46.990Z,4.87
2018-10-07T11:55:16.357Z,2.17
2018-10-07T11:57:45.766Z,9.93
2018-10-07T12:00:15.798Z,5.20
2018-10-07T12:02:46.284Z,3.93
2018-10-07T12:05:16.624Z,3.33
2018-10-07T12:07:46.334Z,3.03
2018-10-07T12:10:16.094Z,7.03
2018-10-07T12:12:46.952Z,5.03
2018-10-07T12:15:16.640Z,3.90
2018-10-07T12:17:46.071Z,4.00
2018-10-07T12:20:15.844Z,67.47
2018-10-07T12:22:46.360Z,5.50
2018-10-07T12:25:16.197Z,6.97
2018-10-07T12:27:46.235Z,9.97
2018-10-07T12:30:16.026Z,8.53
2018-10-07T12:39:32.851Z,14.97
2018-10-07T12:42:02.396Z,4.30
2018-10-07T12:44:32.313Z,2.50
2018-10-07T12:47:02.122Z,2.47
2018-10-07T12:49:32.177Z,3.17
2018-10-07T12:52:01.898Z,2.93
2018-10-07T12:54:31.711Z,3.63
2018-10-07T12:57:02.774Z,7.07
2018-10-07T12:59:32.420Z,1.67
2018-10-07T13:02:05.325Z,3.93
2018-10-07T13:04:36.074Z,6.87
2018-10-07T13:07:05.941Z,7.37
2018-10-07T13:09:35.700Z,5.87
2018-10-07T13:12:05.404Z,7.57
2018-10-07T13:14:35.069Z,5.47
2018-10-07T13:17:04.827Z,4.00
2018-10-07T13:19:34.452Z,8.47
2018-10-07T13:22:04.006Z,3.30
2018-10-07T13:24:33.661Z,4.43
2018-10-07T13:27:03.778Z,5.80
2018-10-07T13:29:33.598Z,7.00
2018-10-07T13:32:03.067Z,3.73
2018-10-07T13:34:33.048Z,4.97
2018-10-07T13:37:03.322Z,6.83
2018-10-07T13:39:35.201Z,7.70
2018-10-07T13:42:05.637Z,15.73
2018-10-07T13:44:35.417Z,16.10
2018-10-07T13:47:07.347Z,5.97
2018-10-07T13:49:37.142Z,4.17
2018-10-07T13:52:06.840Z,25.77
2018-10-07T13:54:37.044Z,8.00
2018-10-07T13:57:06.749Z,40.43
2018-10-07T13:59:36.223Z,13.33
2018-10-07T14:02:05.810Z,4.60
2018-10-07T14:04:35.588Z,11.13
2018-10-07T14:07:06.159Z,6.30
2018-10-07T14:09:36.168Z,14.17
2018-10-07T14:12:05.869Z,4.90
2018-10-07T14:14:35.618Z,2.80
2018-10-07T14:17:05.582Z,9.70
2018-10-07T14:19:35.231Z,6.87
2018-10-07T14:22:05.215Z,11.43
2018-10-07T14:24:34.805Z,4.03
2018-10-07T14:27:04.608Z,2.47
2018-10-07T14:29:34.371Z,2.70
2018-10-07T14:32:03.896Z,5.03
2018-10-07T14:34:33.426Z,6.17
2018-10-07T14:37:03.324Z,24.93
2018-10-07T14:39:33.062Z,5.93
2018-10-07T14:42:02.716Z,20.87
2018-10-07T14:44:32.941Z,10.27
2018-10-07T14:47:02.676Z,7.43
2018-10-07T14:49:32.653Z,19.80
2018-10-07T14:52:02.390Z,28.27
2018-10-07T14:54:32.786Z,26.33
2018-10-07T14:57:02.696Z,30.20
2018-10-07T14:59:32.362Z,21.43
2018-10-07T15:02:03.204Z,23.30
2018-10-07T15:04:33.115Z,11.47
2018-10-07T15:07:02.694Z,16.57
2018-10-07T15:09:32.646Z,10.50
2018-10-07T15:12:02.198Z,17.70
2018-10-07T15:14:32.063Z,18.93
2018-10-07T15:17:01.727Z,17.10
2018-10-07T15:19:32.016Z,24.50
2018-10-07T15:22:01.575Z,22.80
2018-10-07T15:24:32.298Z,17.23
2018-10-07T15:27:02.042Z,22.87
2018-10-07T15:29:31.945Z,16.47
2018-10-07T15:32:02.111Z,10.40
2018-10-07T15:34:31.825Z,14.83
2018-10-07T15:37:02.928Z,7.63
2018-10-07T15:39:32.780Z,8.13
2018-10-07T15:42:03.596Z,7.37
2018-10-07T15:44:33.560Z,8.30
2018-10-07T15:47:03.617Z,15.80
2018-10-07T15:49:33.714Z,34.33
2018-10-07T15:52:03.345Z,63.03
2018-10-07T15:54:33.149Z,66.20
2018-10-07T15:57:03.408Z,45.50
2018-10-07T15:59:35.132Z,48.10
2018-10-07T16:02:05.315Z,40.00
2018-10-07T16:04:35.105Z,33.60
2018-10-07T16:07:05.226Z,28.70
2018-10-07T16:09:35.178Z,34.30
2018-10-07T16:12:05.769Z,27.37
2018-10-07T16:14:36.102Z,32.67
2018-10-07T16:17:05.883Z,29.20
2018-10-07T16:19:36.081Z,47.70
2018-10-07T16:22:05.807Z,40.97
2018-10-07T16:24:36.021Z,42.23
2018-10-07T16:27:05.773Z,69.23
2018-10-07T16:29:35.668Z,86.33
2018-10-07T16:32:05.535Z,81.17
2018-10-07T16:34:35.407Z,85.63
2018-10-07T16:37:05.528Z,107.63
2018-10-07T16:39:35.718Z,109.93
2018-10-07T16:42:05.627Z,95.60
2018-10-07T16:44:35.500Z,93.17
2018-10-07T16:47:05.577Z,98.20
2018-10-07T16:49:37.614Z,85.43
2018-10-07T16:52:07.133Z,85.67
2018-10-07T16:54:38.382Z,70.37
2018-10-07T16:57:08.181Z,65.23
2018-10-07T16:59:38.370Z,76.97
2018-10-07T17:02:08.007Z,63.63
2018-10-07T17:04:37.908Z,61.47
2018-10-07T17:07:08.307Z,55.13
2018-10-07T17:09:38.984Z,63.90
2018-10-07T17:12:10.231Z,63.83
2018-10-07T17:14:41.017Z,58.93
2018-10-07T17:17:10.716Z,66.30
2018-10-07T17:19:40.667Z,68.30
2018-10-07T17:22:10.699Z,70.40
2018-10-07T17:24:40.364Z,64.27
2018-10-07T17:27:11.346Z,70.97
2018-10-07T17:29:41.576Z,56.17
2018-10-07T17:32:11.228Z,74.90
2018-10-07T17:34:41.059Z,45.63
2018-10-07T17:37:10.913Z,47.93
2018-10-07T17:39:40.779Z,53.50
2018-10-07T17:42:11.870Z,63.37
2018-10-07T17:44:41.974Z,74.33
2018-10-07T17:47:12.121Z,56.53
2018-10-07T17:49:41.998Z,49.03
2018-10-07T17:52:12.111Z,51.17
2018-10-07T17:54:42.421Z,33.57
2018-10-07T17:57:12.417Z,47.00
2018-10-07T17:59:42.382Z,57.47
2018-10-07T18:02:12.414Z,63.60
2018-10-07T18:04:43.077Z,85.13
2018-10-07T18:07:13.203Z,106.43
2018-10-07T18:09:43.264Z,61.57
2018-10-07T18:12:14.433Z,42.83
2018-10-07T18:14:44.301Z,26.43
2018-10-07T18:17:14.120Z,19.40
2018-10-07T18:19:44.424Z,18.20
2018-10-07T18:22:15.017Z,17.13
2018-10-07T18:24:46.130Z,18.13
2018-10-07T18:27:16.395Z,21.43
2018-10-07T18:29:46.872Z,15.90
2018-10-07T18:32:16.992Z,11.27
2018-10-07T18:34:48.031Z,15.40
2018-10-07T18:37:18.621Z,13.03
2018-10-07T18:39:49.842Z,14.80
2018-10-07T18:42:19.580Z,13.90
2018-10-07T18:44:49.431Z,13.10
2018-10-07T18:47:19.137Z,13.07
2018-10-07T18:49:50.236Z,11.53
2018-10-07T18:52:19.810Z,12.80
2018-10-07T18:54:49.678Z,15.43
2018-10-07T18:57:20.166Z,16.23
2018-10-07T18:59:51.504Z,11.30
2018-10-07T19:02:22.096Z,7.97
2018-10-07T19:04:51.899Z,9.13
2018-10-07T19:07:21.348Z,9.13
2018-10-07T19:09:50.973Z,8.90
2018-10-07T19:12:20.437Z,18.50
2018-10-07T19:14:49.744Z,40.33
2018-10-07T19:17:18.959Z,21.80
2018-10-07T19:19:48.109Z,10.13
2018-10-07T19:22:17.240Z,12.43
2018-10-07T19:24:46.538Z,7.00
2018-10-07T19:27:16.035Z,11.63
2018-10-07T19:29:45.368Z,15.80
2018-10-07T19:32:14.663Z,15.37
2018-10-07T19:34:43.945Z,10.63
2018-10-07T19:37:14.353Z,10.70
2018-10-07T19:39:43.569Z,12.43
2018-10-07T19:42:12.815Z,11.17
2018-10-07T19:44:42.250Z,12.97
2018-10-07T19:47:11.576Z,16.40
2018-10-07T19:49:40.951Z,12.63
2018-10-07T19:52:10.218Z,21.33
2018-10-07T19:54:39.491Z,20.63
2018-10-07T19:57:08.733Z,34.90
2018-10-07T19:59:37.926Z,15.80
2018-10-07T20:02:07.270Z,30.37
2018-10-07T20:04:36.898Z,20.13
2018-10-07T20:07:06.078Z,22.20
2018-10-07T20:09:35.285Z,26.13
2018-10-07T20:12:04.589Z,19.63
2018-10-07T20:14:33.920Z,19.73
2018-10-07T20:17:03.284Z,14.30
2018-10-07T20:19:32.642Z,8.80
2018-10-07T20:22:01.873Z,10.07
2018-10-07T20:24:31.087Z,13.90
2018-10-07T20:27:00.249Z,9.23
2018-10-07T20:29:29.377Z,9.63
2018-10-07T20:31:58.474Z,5.33
2018-10-07T20:34:27.761Z,8.87
2018-10-07T20:36:56.877Z,9.27
2018-10-07T20:39:26.154Z,5.60
2018-10-07T20:41:55.413Z,5.87
2018-10-07T20:44:24.655Z,5.83
2018-10-07T20:46:53.962Z,10.67
2018-10-07T20:49:23.525Z,8.10
2018-10-07T20:51:53.282Z,13.43
2018-10-07T20:54:21.969Z,24.57
2018-10-07T20:56:51.182Z,26.27
2018-10-07T20:59:20.449Z,24.63
2018-10-07T21:01:49.762Z,27.60
2018-10-07T21:04:19.462Z,23.93
2018-10-07T21:06:48.570Z,22.77
2018-10-07T21:09:17.670Z,24.90
2018-10-07T21:11:47.058Z,20.17
2018-10-07T21:14:16.161Z,25.93
2018-10-07T21:16:45.603Z,20.93
2018-10-07T21:19:15.194Z,21.37
2018-10-07T21:21:44.374Z,19.30
2018-10-07T21:24:13.558Z,23.73
2018-10-07T21:26:43.157Z,22.50
2018-10-07T21:29:12.277Z,25.97
2018-10-07T21:31:41.365Z,18.80
2018-10-07T21:34:10.700Z,17.13
2018-10-07T21:36:39.847Z,20.43
2018-10-07T21:39:10.137Z,19.63
2018-10-07T21:41:39.377Z,16.93
2018-10-07T21:44:08.797Z,17.40
2018-10-07T21:46:38.781Z,18.90
2018-10-07T21:49:08.616Z,18.57
2018-10-07T21:51:37.729Z,15.77
2018-10-07T21:54:07.356Z,18.43
2018-10-07T21:56:36.524Z,14.20
2018-10-07T21:59:06.313Z,11.30
2018-10-07T22:01:35.681Z,14.93
2018-10-07T22:04:04.929Z,12.20
2018-10-07T22:06:34.017Z,21.50
2018-10-07T22:09:04.121Z,19.20
2018-10-07T22:11:33.327Z,27.13
2018-10-07T22:14:02.645Z,14.83
2018-10-07T22:16:31.878Z,22.33
2018-10-07T22:19:00.958Z,15.37
2018-10-07T22:21:30.050Z,21.90
2018-10-07T22:23:59.393Z,12.93
2018-10-07T22:26:28.634Z,14.40
2018-10-07T22:28:57.725Z,12.37
2018-10-07T22:31:26.945Z,11.87
2018-10-07T22:33:56.315Z,14.13
2018-10-07T22:36:25.624Z,13.27
2018-10-07T22:38:54.959Z,14.87
2018-10-07T22:41:24.129Z,20.03
2018-10-07T22:43:53.198Z,12.73
2018-10-07T22:46:22.833Z,21.83
2018-10-07T22:48:52.049Z,18.93
2018-10-07T22:51:21.232Z,20.57
2018-10-07T22:53:50.949Z,35.17
2018-10-07T22:56:20.202Z,127.70
2018-10-07T22:58:49.413Z,144.17
2018-10-07T23:01:18.609Z,110.37
2018-10-07T23:03:47.709Z,59.23
2018-10-07T23:06:16.898Z,47.87
2018-10-07T23:08:46.157Z,27.37
2018-10-07T23:11:15.409Z,18.27
2018-10-07T23:13:44.525Z,13.97
2018-10-07T23:16:13.680Z,13.93
2018-10-07T23:18:43.107Z,14.73
2018-10-07T23:21:12.408Z,11.57
2018-10-07T23:23:41.832Z,15.43
2018-10-07T23:26:11.002Z,8.97
2018-10-07T23:28:40.005Z,9.30
2018-10-07T23:31:09.449Z,10.70
2018-10-07T23:33:38.602Z,10.83
2018-10-07T23:36:07.853Z,14.07
2018-10-07T23:38:37.157Z,18.33
2018-10-07T23:41:06.487Z,12.83
2018-10-07T23:43:35.789Z,22.30
2018-10-07T23:46:05.161Z,25.13
2018-10-07T23:48:34.420Z,33.30
2018-10-07T23:51:03.577Z,28.73
2018-10-07T23:53:32.957Z,27.80
2018-10-07T23:56:02.312Z,23.13
2018-10-07T23:58:31.478Z,29.17
